Flight Track Log - Related Links

Times and Time Zones

All times are in EDT time to prevent confusion due to time zone crossing. See the N3QE flight status page for this flight to view local times or setup timezone preferences in your user account.

Time Position Orientation Groundspeed Altitude Reporting Facility
EDT Latitude Longitude Course Direction KTS MPH feet Rate Location/Type
Sun 01:27:40 PM 32.0447 -81.2111 190° South 184 212 3,000  Level Jacksonville Center
Sun 01:28:40 PM 31.9944 -81.1997 169° South 203 234 4,800 1,750 Climbing Jacksonville Center
Sun 01:29:40 PM 31.9317 -81.1814 166° South 219 252 6,500 1,850 Climbing Jacksonville Center
Sun 01:30:40 PM 31.8606 -81.1756 176° South 232 267 8,500 1,850 Climbing Jacksonville Center
Sun 01:31:40 PM 31.8042 -81.1814 185° South 232 267 10,200 1,750 Climbing Jacksonville Center
Sun 01:32:00 PM 31.6559 -81.2955 190° South  Level FlightAware Approximate
Sun 01:32:40 PM 31.7333 -81.1850 182° South 232 267 12,000  Level Jacksonville Center
Sun 01:33:40 PM 31.6686 -81.1889 183° South 239 275 13,200 1,150 Climbing Jacksonville Center
Sun 01:34:40 PM 31.6081 -81.1897 181° South 239 275 14,300 1,200 Climbing Jacksonville Center
Sun 01:35:40 PM 31.5331 -81.1936 183° South 244 281 15,600 1,150 Climbing Jacksonville Center
Sun 01:36:40 PM 31.4642 -81.1972 183° South 251 289 16,600 1,050 Climbing Jacksonville Center
Sun 01:37:40 PM 31.4014 -81.1986 181° South 251 289 17,700 900 Climbing Jacksonville Center
Sun 01:38:40 PM 31.3328 -81.2069 186° South 251 289 18,400 850 Climbing Jacksonville Center
Sun 01:39:40 PM 31.2597 -81.2108 183° South 257 296 19,400 1,000 Climbing Jacksonville Center
Sun 01:40:40 PM 31.1908 -81.2242 189° South 257 296 20,400 1,000 Climbing Jacksonville Center
Sun 01:41:40 PM 31.1222 -81.2425 193° South 257 296 21,400 1,000 Climbing Jacksonville Center
Sun 01:42:40 PM 31.0536 -81.2606 193° South 257 296 22,400 1,000 Climbing Jacksonville Center
Sun 01:43:40 PM 30.9850 -81.2761 191° South 257 296 23,400 950 Climbing Jacksonville Center
Sun 01:44:40 PM 30.9161 -81.2919 191° South 257 296 24,300 900 Climbing Jacksonville Center
Sun 01:45:40 PM 30.8433 -81.3078 191° South 257 296 25,200 900 Climbing Jacksonville Center
Sun 01:46:40 PM 30.7725 -81.3233 191° South 257 296 26,100 900 Climbing Jacksonville Center
Sun 01:47:40 PM 30.7017 -81.3392 191° South 257 296 27,000 900 Climbing Jacksonville Center
Sun 01:48:40 PM 30.6289 -81.3572 192° South 257 296 27,900 900 Climbing Jacksonville Center
Sun 01:49:40 PM 30.5581 -81.3703 189° South 257 296 28,800 900 Climbing Jacksonville Center
Sun 01:50:40 PM 30.4853 -81.3883 192° South 257 296 29,700 900 Climbing Jacksonville Center
Sun 01:51:40 PM 30.4103 -81.4039 190° South 262 302 30,600 800 Climbing Jacksonville Center
Sun 01:52:40 PM 30.3311 -81.4197 190° South 267 307 31,300 600 Climbing Jacksonville Center
Sun 01:53:40 PM 30.2519 -81.4378 191° South 279 321 31,800 350 Climbing Jacksonville Center
Sun 01:54:40 PM 30.1708 -81.4558 191° South 291 335 32,000 100 Climbing Jacksonville Center
Sun 01:55:40 PM 30.0853 -81.4739 190° South 303 349 32,000  Level Jacksonville Center
Sun 01:56:40 PM 29.9936 -81.4967 192° South 325 374 32,000  Level Jacksonville Center
Sun 01:57:40 PM 29.9022 -81.5172 191° South 335 386 32,000  Level Jacksonville Center
Sun 01:58:40 PM 29.8106 -81.5353 190° South 335 386 32,000  Level Jacksonville Center
Sun 01:59:40 PM 29.7167 -81.5581 192° South 335 386 32,000  Level Jacksonville Center
Sun 02:00:40 PM 29.6231 -81.5786 191° South 335 386 32,000  Level Jacksonville Center
Sun 02:01:40 PM 29.5314 -81.5964 190° South 335 386 32,000  Level Jacksonville Center
Sun 02:02:40 PM 29.4378 -81.6217 193° South 335 386 32,000  Level Jacksonville Center
Sun 02:03:40 PM 29.3439 -81.6419 191° South 340 391 32,000  Level Jacksonville Center
Sun 02:04:40 PM 29.2481 -81.6597 189° South 340 391 32,000  Level Jacksonville Center
Sun 02:05:40 PM 29.1564 -81.6822 192° South 345 397 32,000  Level Jacksonville Center
Sun 02:06:40 PM 29.0628 -81.7025 191° South 345 397 32,000 -268 Level Jacksonville Center
Sun 02:08:17 PM 28.9019 -81.7375 191° South 380 437 31,300 -764 Descending Miami Center
Sun 02:09:17 PM 28.8053 -81.7594 191° South 366 421 30,000 -1,250 Descending Miami Center
Sun 02:10:17 PM 28.7003 -81.7808 190° South 373 429 28,800 -1,200 Descending Miami Center
Sun 02:11:17 PM 28.5953 -81.7997 189° South 379 436 27,600 -900 Descending Miami Center
Sun 02:12:17 PM 28.4975 -81.7953 178° South 371 427 27,000 -650 Descending Miami Center
Sun 02:13:17 PM 28.4022 -81.7747 169° South 351 404 26,300 -800 Descending Miami Center
Sun 02:14:17 PM 28.3133 -81.7519 167° South 358 412 25,400 -950 Descending Miami Center
Sun 02:15:17 PM 28.2222 -81.7292 168° South 358 412 24,400 -1,000 Descending Miami Center
Sun 02:16:17 PM 28.1250 -81.7036 167° South 353 406 23,400 -1,000 Descending Miami Center
Sun 02:17:17 PM 28.0319 -81.6833 169° South 353 406 22,400 -1,150 Descending Miami Center
Sun 02:18:17 PM 27.9408 -81.6606 168° South 353 406 21,100 -1,650 Descending Miami Center
Sun 02:19:17 PM 27.8497 -81.6356 166° South 347 399 19,100 -1,700 Descending Miami Center
Sun 02:20:17 PM 27.7669 -81.6181 169° South 329 379 17,700 -1,000 Descending Miami Center
Sun 02:21:17 PM 27.6861 -81.5983 168° South 319 367 17,100 -550 Descending Miami Center
Sun 02:22:17 PM 27.6011 -81.5783 168° South 313 360 16,600 -500 Descending Miami Center
Sun 02:23:17 PM 27.5164 -81.5586 168° South 313 360 16,100 -450 Descending Miami Center
Sun 02:24:17 PM 27.4356 -81.5389 168° South 308 354 15,700 -400 Descending Miami Center
Sun 02:25:17 PM 27.3528 -81.5192 168° South 308 354 15,300 -450 Descending Miami Center
Sun 02:26:17 PM 27.2719 -81.4972 166° South 308 354 14,800 -500 Descending Miami Center
Sun 02:27:17 PM 27.1911 -81.4775 168° South 308 354 14,300 -750 Descending Miami Center
Sun 02:28:17 PM 27.1125 -81.4628 171° South 303 349 13,300 -1,250 Descending Miami Center
Sun 02:29:17 PM 27.0358 -81.4411 166° South 293 337 11,800 -1,150 Descending Miami Center
Sun 02:30:17 PM 26.9569 -81.4239 169° South 293 337 11,000 -650 Descending Miami Center
Sun 02:31:17 PM 26.8742 -81.4044 168° South 293 337 10,500 -750 Descending Miami Center
Sun 02:32:17 PM 26.8033 -81.3969 175° South 271 312 9,500 -1,000 Descending Miami Center
Sun 02:33:17 PM 26.7372 -81.4456 213° Southwest 257 296 8,500 -750 Descending Miami Center
Sun 02:34:17 PM 26.6692 -81.4847 207° Southwest 276 318 8,000 -250 Descending Miami Center
Sun 02:35:17 PM 26.6033 -81.5217 207° Southwest 276 318 8,000  Level Miami Center
Sun 02:37:00 PM 26.4748 -81.5751 208° Southwest  Level FlightAware Approximate
Sun 02:44:00 PM 26.1500 -81.7667 204° Southwest  Level FlightAware Approximate
Sun 02:45:00 PM 26.1524 -81.7756 204° Southwest  Level Estimated
Sun 02:46:00 PM 26.1524 -81.7756 204° Southwest  Level Estimated
Sun 02:47:00 PM 26.1524 -81.7756 204° Southwest  Level Estimated
Sun 02:48:00 PM 26.1524 -81.7756 204° Southwest  Level Estimated
Sun 02:49:00 PM 26.1524 -81.7756 204° Southwest  Level Estimated
Sun 02:50:00 PM 26.1524 -81.7756 204° Southwest  Level Estimated
Sun 02:51:00 PM 26.1524 -81.7756 204° Southwest  Level Estimated
Sun 02:52:00 PM 26.1524 -81.7756 204° Southwest  Level Estimated
Sun 02:53:00 PM 26.1524 -81.7756 204° Southwest  Level Estimated

Login

Don't have an account? Register now (free) for customized features, flight alerts, and more!